createdAt,value
2019-04-10T00:01:02.112Z,8.90
2019-04-10T00:03:39.096Z,9.02
2019-04-10T00:06:09.279Z,8.83
2019-04-10T00:08:39.901Z,8.75
2019-04-10T00:11:10.590Z,8.82
2019-04-10T00:13:41.348Z,8.73
2019-04-10T00:16:13.964Z,8.64
2019-04-10T00:18:44.492Z,8.78
2019-04-10T00:21:25.193Z,8.78
2019-04-10T00:23:55.926Z,8.71
2019-04-10T00:26:27.913Z,8.48
2019-04-10T00:28:58.540Z,8.64
2019-04-10T00:31:30.180Z,8.62
2019-04-10T00:34:07.388Z,8.52
2019-04-10T00:36:37.996Z,8.56
2019-04-10T00:39:22.311Z,8.46
2019-04-10T00:41:53.148Z,8.64
2019-04-10T00:44:23.826Z,8.54
2019-04-10T00:46:54.843Z,8.62
2019-04-10T00:49:26.022Z,8.66
2019-04-10T00:51:57.893Z,8.44
2019-04-10T00:54:28.596Z,8.62
2019-04-10T00:56:59.246Z,8.47
2019-04-10T00:59:37.089Z,8.62
2019-04-10T01:02:08.053Z,8.61
2019-04-10T01:04:49.105Z,8.60
2019-04-10T01:07:36.487Z,8.62
2019-04-10T01:09:58.973Z,8.78
2019-04-10T01:12:34.501Z,8.77
2019-04-10T01:15:06.626Z,8.40
2019-04-10T01:17:42.689Z,8.45
2019-04-10T01:20:15.622Z,8.40
2019-04-10T01:22:47.704Z,8.45
2019-04-10T01:25:18.677Z,8.32
2019-04-10T01:27:50.035Z,8.58
2019-04-10T01:30:20.910Z,8.60
2019-04-10T01:32:52.590Z,8.35
2019-04-10T01:35:26.544Z,8.39
2019-04-10T01:38:06.464Z,8.30
2019-04-10T01:40:37.411Z,7.97
2019-04-10T01:43:12.665Z,7.96
2019-04-10T01:45:41.772Z,7.91
2019-04-10T01:48:17.477Z,7.80
2019-04-10T01:50:46.836Z,8.02
2019-04-10T01:53:28.082Z,7.80
2019-04-10T01:55:59.645Z,7.96
2019-04-10T01:58:30.299Z,7.92
2019-04-10T02:01:02.655Z,7.96
2019-04-10T02:03:34.079Z,7.97
2019-04-10T02:06:07.150Z,7.99
2019-04-10T02:08:38.234Z,7.98
2019-04-10T02:11:25.976Z,8.02
2019-04-10T02:13:56.865Z,8.00
2019-04-10T02:16:28.686Z,7.90
2019-04-10T02:18:59.634Z,7.99
2019-04-10T02:21:30.437Z,7.98
2019-04-10T02:24:02.917Z,7.90
2019-04-10T02:26:34.636Z,7.87
2019-04-10T02:29:05.340Z,7.79
2019-04-10T02:31:36.597Z,7.33
2019-04-10T02:34:09.063Z,7.50
2019-04-10T02:36:39.953Z,7.23
2019-04-10T02:39:21.845Z,7.26
2019-04-10T02:41:58.246Z,7.17
2019-04-10T02:44:30.588Z,7.18
2019-04-10T02:47:02.170Z,7.17
2019-04-10T02:49:40.377Z,7.35
2019-04-10T02:52:12.845Z,7.03
2019-04-10T02:54:43.647Z,6.93
2019-04-10T02:57:17.250Z,6.99
2019-04-10T02:59:48.030Z,7.01
2019-04-10T03:02:20.120Z,6.90
2019-04-10T03:04:51.044Z,7.12
2019-04-10T03:07:22.101Z,7.07
2019-04-10T03:10:08.788Z,7.08
2019-04-10T03:12:30.147Z,7.10
2019-04-10T03:15:03.446Z,7.10
2019-04-10T03:17:34.856Z,7.07
2019-04-10T03:20:07.846Z,6.81
2019-04-10T03:22:47.206Z,6.87
2019-04-10T03:25:19.326Z,7.05
2019-04-10T03:27:52.515Z,7.01
2019-04-10T03:30:39.454Z,6.94
2019-04-10T03:33:31.114Z,7.06
2019-04-10T03:36:12.255Z,6.65
2019-04-10T03:38:55.322Z,6.35
2019-04-10T03:41:28.183Z,6.34
2019-04-10T03:43:58.881Z,6.43
2019-04-10T03:46:29.767Z,6.41
2019-04-10T03:49:01.234Z,6.35
2019-04-10T03:51:32.443Z,6.15
2019-04-10T03:54:03.065Z,6.14
2019-04-10T03:56:33.946Z,6.08
2019-04-10T03:59:04.638Z,6.07
2019-04-10T04:01:43.095Z,6.36
2019-04-10T04:04:13.707Z,6.29
2019-04-10T04:06:56.406Z,6.32
2019-04-10T04:09:29.301Z,6.46
2019-04-10T04:12:00.198Z,6.13
2019-04-10T04:14:30.916Z,6.31
2019-04-10T04:17:01.918Z,6.09
2019-04-10T04:19:37.951Z,6.14
2019-04-10T04:22:08.591Z,6.14
2019-04-10T04:24:44.045Z,5.99
2019-04-10T04:27:15.291Z,5.94
2019-04-10T04:29:46.219Z,5.98
2019-04-10T04:32:17.641Z,5.95
2019-04-10T04:34:49.786Z,6.12
2019-04-10T04:37:20.905Z,6.11
2019-04-10T04:39:52.236Z,5.90
2019-04-10T04:42:30.707Z,5.93
2019-04-10T04:45:03.664Z,5.45
2019-04-10T04:47:34.346Z,5.54
2019-04-10T04:50:05.732Z,5.67
2019-04-10T04:52:39.097Z,5.73
2019-04-10T04:55:19.778Z,5.78
2019-04-10T04:57:50.662Z,5.90
2019-04-10T05:00:21.594Z,5.60
2019-04-10T05:02:53.714Z,5.61
2019-04-10T05:05:25.272Z,5.33
2019-04-10T05:08:00.029Z,5.16
2019-04-10T05:10:29.368Z,5.23
2019-04-10T05:13:02.073Z,5.31
2019-04-10T05:15:33.256Z,5.42
2019-04-10T05:18:10.376Z,5.57
2019-04-10T05:20:47.301Z,5.62
2019-04-10T05:23:13.964Z,5.61
2019-04-10T05:25:45.664Z,5.37
2019-04-10T05:28:16.479Z,5.48
2019-04-10T05:30:47.470Z,5.61
2019-04-10T05:33:20.409Z,5.33
2019-04-10T05:35:51.204Z,5.29
2019-04-10T05:38:24.966Z,5.02
2019-04-10T05:41:01.870Z,5.13
2019-04-10T05:43:32.471Z,5.44
2019-04-10T05:46:03.228Z,5.54
2019-04-10T05:48:33.957Z,5.50
2019-04-10T05:51:08.964Z,5.61
2019-04-10T05:53:40.864Z,5.70
2019-04-10T05:56:22.515Z,5.77
2019-04-10T05:58:53.251Z,5.75
2019-04-10T06:01:32.373Z,5.88
2019-04-10T06:03:56.839Z,5.79
2019-04-10T06:06:28.475Z,5.86
2019-04-10T06:09:12.176Z,6.05
2019-04-10T06:11:44.156Z,6.06
2019-04-10T06:14:22.149Z,6.17
2019-04-10T06:16:58.087Z,6.24
2019-04-10T06:19:28.840Z,6.36
2019-04-10T06:21:59.426Z,6.59
2019-04-10T06:24:36.395Z,6.69
2019-04-10T06:27:08.189Z,6.47
2019-04-10T06:29:44.576Z,6.67
2019-04-10T06:32:15.171Z,6.59
2019-04-10T06:34:46.138Z,6.58
2019-04-10T06:37:17.715Z,6.66
2019-04-10T06:39:49.475Z,6.92
2019-04-10T06:42:47.557Z,6.90
2019-04-10T06:45:13.196Z,6.82
2019-04-10T06:47:50.793Z,6.65
2019-04-10T06:50:21.623Z,6.93
2019-04-10T06:52:53.411Z,7.26
2019-04-10T06:55:39.275Z,6.74
2019-04-10T06:58:09.961Z,6.54
2019-04-10T07:00:41.080Z,6.62
2019-04-10T07:03:11.762Z,6.80
2019-04-10T07:05:56.273Z,6.90
2019-04-10T07:08:22.934Z,6.87
2019-04-10T07:11:04.742Z,7.23
2019-04-10T07:13:30.181Z,7.40
2019-04-10T07:16:09.534Z,6.99
2019-04-10T07:18:48.217Z,7.18
2019-04-10T07:21:22.172Z,7.07
2019-04-10T07:23:57.308Z,7.36
2019-04-10T07:26:39.651Z,7.47
2019-04-10T07:29:06.417Z,7.56
2019-04-10T07:31:39.418Z,7.64
2019-04-10T07:34:10.962Z,7.78
2019-04-10T07:36:43.523Z,7.91
2019-04-10T07:39:18.396Z,7.97
2019-04-10T07:41:51.534Z,8.11
2019-04-10T07:44:23.325Z,7.95
2019-04-10T07:46:55.270Z,7.52
2019-04-10T07:49:33.062Z,7.81
2019-04-10T07:52:05.771Z,7.88
2019-04-10T07:54:36.498Z,7.81
2019-04-10T07:57:08.295Z,8.22
2019-04-10T07:59:41.147Z,7.94
2019-04-10T08:02:17.583Z,7.58
2019-04-10T08:04:49.433Z,7.72
2019-04-10T08:07:31.265Z,7.89
2019-04-10T08:09:59.295Z,7.71
2019-04-10T08:12:39.480Z,7.54
2019-04-10T08:15:06.947Z,7.54
2019-04-10T08:17:41.095Z,7.90
2019-04-10T08:20:11.961Z,7.84
2019-04-10T08:22:42.847Z,7.62
2019-04-10T08:25:22.819Z,7.94
2019-04-10T08:27:54.328Z,8.08
2019-04-10T08:30:25.926Z,8.35
2019-04-10T08:33:01.002Z,8.37
2019-04-10T08:35:36.121Z,8.40
2019-04-10T08:38:07.690Z,8.55
2019-04-10T08:40:38.436Z,8.53
2019-04-10T08:43:10.031Z,8.57
2019-04-10T08:45:47.187Z,8.94
2019-04-10T08:48:15.554Z,9.17
2019-04-10T08:50:46.194Z,9.15
2019-04-10T08:53:18.118Z,9.54
2019-04-10T08:55:48.838Z,9.44
2019-04-10T08:58:20.803Z,9.34
2019-04-10T09:00:54.111Z,9.53
2019-04-10T09:03:30.923Z,9.73
2019-04-10T09:06:07.828Z,10.06
2019-04-10T09:08:42.115Z,9.95
2019-04-10T09:11:26.206Z,10.08
2019-04-10T09:13:52.779Z,10.31
2019-04-10T09:16:28.866Z,10.39
2019-04-10T09:19:01.593Z,10.24
2019-04-10T09:21:33.269Z,10.42
2019-04-10T09:24:10.231Z,10.75
2019-04-10T09:26:40.980Z,10.68
2019-04-10T09:29:13.999Z,10.96
2019-04-10T09:31:46.760Z,11.07
2019-04-10T09:34:17.951Z,10.84
2019-04-10T09:36:49.233Z,11.02
2019-04-10T09:39:20.569Z,10.88
2019-04-10T09:41:58.733Z,10.98
2019-04-10T09:44:33.686Z,10.94
2019-04-10T09:47:06.397Z,10.92
2019-04-10T09:49:45.895Z,11.08
2019-04-10T09:52:12.943Z,11.30
2019-04-10T09:54:47.307Z,11.28
2019-04-10T09:57:20.078Z,11.20
2019-04-10T09:59:50.945Z,11.43
2019-04-10T10:02:21.685Z,11.61
2019-04-10T10:04:53.589Z,11.63
2019-04-10T10:07:26.346Z,11.19
2019-04-10T10:09:59.706Z,11.37
2019-04-10T10:12:29.537Z,11.26
2019-04-10T10:15:03.511Z,11.48
2019-04-10T10:17:34.893Z,11.65
2019-04-10T10:20:11.927Z,11.72
2019-04-10T10:22:42.588Z,11.57
2019-04-10T10:25:13.405Z,11.32
2019-04-10T10:27:46.821Z,11.53
2019-04-10T10:30:17.824Z,11.49
2019-04-10T10:32:48.911Z,11.53
2019-04-10T10:35:20.604Z,11.67
2019-04-10T10:37:59.310Z,11.71
2019-04-10T10:40:33.951Z,11.78
2019-04-10T10:43:04.814Z,11.70
2019-04-10T10:45:42.819Z,11.60
2019-04-10T10:48:13.756Z,11.23
2019-04-10T10:50:45.860Z,11.47
2019-04-10T10:53:16.539Z,11.41
2019-04-10T10:55:48.296Z,11.55
2019-04-10T10:58:19.691Z,11.65
2019-04-10T11:00:55.725Z,11.58
2019-04-10T11:03:32.533Z,11.69
2019-04-10T11:06:08.866Z,11.79
2019-04-10T11:08:48.740Z,12.01
2019-04-10T11:11:22.584Z,11.82
2019-04-10T11:14:03.504Z,11.71
2019-04-10T11:16:35.305Z,11.84
2019-04-10T11:19:06.952Z,11.91
2019-04-10T11:21:39.007Z,11.73
2019-04-10T11:24:15.216Z,11.56
2019-04-10T11:26:52.232Z,11.86
2019-04-10T11:29:24.010Z,11.90
2019-04-10T11:31:55.926Z,11.91
2019-04-10T11:34:29.239Z,12.01
2019-04-10T11:37:18.181Z,11.84
2019-04-10T11:39:35.867Z,12.10
2019-04-10T11:42:09.972Z,12.27
2019-04-10T11:44:46.189Z,12.41
2019-04-10T11:47:15.269Z,12.26
2019-04-10T11:49:47.179Z,12.29
2019-04-10T11:52:27.497Z,12.49
2019-04-10T11:54:56.672Z,12.48
2019-04-10T11:57:30.798Z,12.56
2019-04-10T12:00:08.808Z,12.82
2019-04-10T12:02:57.864Z,12.83
2019-04-10T12:05:40.366Z,12.76
2019-04-10T12:08:33.607Z,13.05
2019-04-10T12:13:24.160Z,13.53
2019-04-10T12:15:58.931Z,13.65
2019-04-10T12:18:40.531Z,13.87
2019-04-10T12:21:15.719Z,13.86
2019-04-10T12:23:57.642Z,13.76
2019-04-10T12:26:35.903Z,13.75
2019-04-10T12:29:06.752Z,13.70
2019-04-10T12:31:37.392Z,13.61
2019-04-10T12:34:10.776Z,13.52
2019-04-10T12:36:47.090Z,13.55
2019-04-10T12:39:24.640Z,13.10
2019-04-10T12:42:00.956Z,12.97
2019-04-10T12:44:40.868Z,12.84
2019-04-10T12:47:11.690Z,13.17
2019-04-10T12:49:42.246Z,13.45
2019-04-10T12:52:12.987Z,13.68
2019-04-10T12:54:49.708Z,13.64
2019-04-10T12:57:23.843Z,13.66
2019-04-10T12:59:59.900Z,13.46
2019-04-10T13:02:31.686Z,13.68
2019-04-10T13:05:11.321Z,13.18
2019-04-10T13:07:42.128Z,13.29
2019-04-10T13:10:21.858Z,13.42
2019-04-10T13:12:53.478Z,13.61
2019-04-10T13:15:32.138Z,13.63
2019-04-10T13:18:03.755Z,13.66
2019-04-10T13:20:34.690Z,13.54
2019-04-10T13:23:06.585Z,13.38
2019-04-10T13:25:42.782Z,13.31
2019-04-10T13:28:15.112Z,13.48
2019-04-10T13:30:51.549Z,13.66
2019-04-10T13:33:21.101Z,13.72
2019-04-10T13:36:03.131Z,13.58
2019-04-10T13:38:50.538Z,13.41
2019-04-10T13:41:21.942Z,13.14
2019-04-10T13:44:02.676Z,13.08
2019-04-10T13:46:33.801Z,13.06
2019-04-10T13:49:06.058Z,13.06
2019-04-10T13:51:39.304Z,13.14
2019-04-10T13:54:16.530Z,12.99
2019-04-10T13:56:52.913Z,12.91
2019-04-10T13:59:24.787Z,12.55
2019-04-10T14:02:00.547Z,12.49
2019-04-10T14:04:33.378Z,12.75
2019-04-10T14:07:09.738Z,12.88
2019-04-10T14:09:51.992Z,12.70
2019-04-10T14:12:24.994Z,12.80
2019-04-10T14:15:01.548Z,12.99
2019-04-10T14:17:35.411Z,12.74
2019-04-10T14:20:15.142Z,12.72
2019-04-10T14:22:55.986Z,12.49
2019-04-10T14:25:54.371Z,12.74
2019-04-10T14:28:38.466Z,12.70
2019-04-10T14:31:23.101Z,12.59
2019-04-10T14:34:06.633Z,12.46
2019-04-10T14:37:11.422Z,12.56
2019-04-10T14:39:47.592Z,12.78
2019-04-10T14:42:19.223Z,12.90
2019-04-10T14:44:53.005Z,12.94
2019-04-10T14:47:31.848Z,12.81
2019-04-10T14:50:04.986Z,12.50
2019-04-10T14:52:38.815Z,12.46
2019-04-10T14:55:16.572Z,12.37
2019-04-10T14:57:53.118Z,12.57
2019-04-10T15:00:32.904Z,12.55
2019-04-10T15:03:04.418Z,12.66
2019-04-10T15:05:47.592Z,12.77
2019-04-10T15:08:14.183Z,12.69
2019-04-10T15:10:47.571Z,12.85
2019-04-10T15:13:22.447Z,12.86
2019-04-10T15:15:52.834Z,12.91
2019-04-10T15:18:25.047Z,12.88
2019-04-10T15:20:59.325Z,13.06
2019-04-10T15:23:30.099Z,13.06
2019-04-10T15:26:01.839Z,12.71
2019-04-10T15:28:33.962Z,12.69
2019-04-10T15:31:06.843Z,12.67
2019-04-10T15:33:46.635Z,12.64
2019-04-10T15:36:25.144Z,12.80
2019-04-10T15:39:00.332Z,12.66
2019-04-10T15:41:32.984Z,12.67
2019-04-10T15:44:05.853Z,12.32
2019-04-10T15:46:45.650Z,12.37
2019-04-10T15:49:19.452Z,12.54
2019-04-10T15:51:53.226Z,12.57
2019-04-10T15:54:25.690Z,12.53
2019-04-10T15:57:01.106Z,12.29
2019-04-10T15:59:32.640Z,12.11
2019-04-10T16:02:07.843Z,12.05
2019-04-10T16:04:40.315Z,12.10
2019-04-10T16:07:14.149Z,12.22
2019-04-10T16:09:52.185Z,11.88
2019-04-10T16:12:24.828Z,11.98
2019-04-10T16:14:57.062Z,12.10
2019-04-10T16:17:51.307Z,12.16
2019-04-10T16:20:29.449Z,12.12
2019-04-10T16:23:08.154Z,12.04
2019-04-10T16:25:43.268Z,12.20
2019-04-10T16:28:24.308Z,12.13
2019-04-10T16:30:57.210Z,12.07
2019-04-10T16:33:39.078Z,12.15
2019-04-10T16:36:13.030Z,12.09
2019-04-10T16:38:44.961Z,11.94
2019-04-10T16:41:19.724Z,11.55
2019-04-10T16:43:54.911Z,11.69
2019-04-10T16:46:27.841Z,11.65
2019-04-10T16:49:01.575Z,11.48
2019-04-10T16:51:32.369Z,11.28
2019-04-10T16:54:13.809Z,11.53
2019-04-10T16:56:47.882Z,11.68
2019-04-10T16:59:22.189Z,11.65
2019-04-10T17:01:57.478Z,11.46
2019-04-10T17:04:31.953Z,11.42
2019-04-10T17:07:03.302Z,11.58
2019-04-10T17:09:43.856Z,11.64
2019-04-10T17:12:16.243Z,11.47
2019-04-10T17:14:47.818Z,11.54
2019-04-10T17:17:20.159Z,11.49
2019-04-10T17:19:57.542Z,11.46
2019-04-10T17:22:34.363Z,11.55
2019-04-10T17:25:02.307Z,11.56
2019-04-10T17:27:35.351Z,11.29
2019-04-10T17:30:11.562Z,11.33
2019-04-10T17:32:43.017Z,11.42
2019-04-10T17:35:16.790Z,11.38
2019-04-10T17:37:47.964Z,11.32
2019-04-10T17:40:29.967Z,11.43
2019-04-10T17:42:54.752Z,11.32
2019-04-10T17:45:40.285Z,11.30
2019-04-10T17:48:11.725Z,11.14
2019-04-10T17:50:47.847Z,10.99
2019-04-10T17:53:21.129Z,10.80
2019-04-10T17:55:52.215Z,10.82
2019-04-10T17:58:37.914Z,10.78
2019-04-10T18:01:17.234Z,10.81
2019-04-10T18:03:55.416Z,10.67
2019-04-10T18:06:31.134Z,10.51
2019-04-10T18:09:09.732Z,10.62
2019-04-10T18:11:43.514Z,10.65
2019-04-10T18:14:15.330Z,10.64
2019-04-10T18:16:49.915Z,10.71
2019-04-10T18:19:21.349Z,10.59
2019-04-10T18:21:54.210Z,10.51
2019-04-10T18:24:30.451Z,10.35
2019-04-10T18:27:01.599Z,10.39
2019-04-10T18:29:36.157Z,10.53
2019-04-10T18:32:09.725Z,10.42
2019-04-10T18:34:42.415Z,10.31
2019-04-10T18:37:22.038Z,10.49
2019-04-10T18:39:50.731Z,10.39
2019-04-10T18:42:26.701Z,10.35
2019-04-10T18:45:00.160Z,10.31
2019-04-10T18:47:32.845Z,10.27
2019-04-10T18:50:06.362Z,10.09
2019-04-10T18:52:37.657Z,9.97
2019-04-10T18:55:10.155Z,10.07
2019-04-10T18:57:43.197Z,10.07
2019-04-10T19:00:40.621Z,10.11
2019-04-10T19:03:27.605Z,10.03
2019-04-10T19:06:13.227Z,9.97
2019-04-10T19:08:46.187Z,9.72
2019-04-10T19:11:22.877Z,9.64
2019-04-10T19:13:51.222Z,9.73
2019-04-10T19:16:23.510Z,9.80
2019-04-10T19:18:56.941Z,9.93
2019-04-10T19:21:32.536Z,9.83
2019-04-10T19:24:09.880Z,9.86
2019-04-10T19:26:40.970Z,9.86
2019-04-10T19:29:17.138Z,9.81
2019-04-10T19:31:50.020Z,9.85
2019-04-10T19:34:27.524Z,9.76
2019-04-10T19:37:00.557Z,9.82
2019-04-10T19:39:40.402Z,9.68
2019-04-10T19:42:13.789Z,9.74
2019-04-10T19:44:45.992Z,9.59
2019-04-10T19:47:17.937Z,9.72
2019-04-10T19:49:55.354Z,9.72
2019-04-10T19:52:32.850Z,9.61
2019-04-10T19:55:17.506Z,9.54
2019-04-10T19:57:49.785Z,9.45
2019-04-10T20:00:31.161Z,9.48
2019-04-10T20:03:07.804Z,9.50
2019-04-10T20:05:39.359Z,9.40
2019-04-10T20:08:12.775Z,9.35
2019-04-10T20:10:43.717Z,9.21
2019-04-10T20:13:16.605Z,9.31
2019-04-10T20:15:48.832Z,9.30
2019-04-10T20:18:24.506Z,9.08
2019-04-10T20:20:56.594Z,9.12
2019-04-10T20:23:40.368Z,9.23
2019-04-10T20:26:25.251Z,9.11
2019-04-10T20:28:57.653Z,9.07
2019-04-10T20:31:34.548Z,9.11
2019-04-10T20:34:09.698Z,8.91
2019-04-10T20:36:49.099Z,9.00
2019-04-10T20:39:37.060Z,9.07
2019-04-10T20:42:12.716Z,9.01
2019-04-10T20:44:43.604Z,8.96
2019-04-10T20:47:22.618Z,8.85
2019-04-10T20:49:56.323Z,8.92
2019-04-10T20:52:28.452Z,8.83
2019-04-10T20:54:59.479Z,8.88
2019-04-10T20:57:35.329Z,8.82
2019-04-10T21:00:09.386Z,8.82
2019-04-10T21:02:42.653Z,8.81
2019-04-10T21:05:19.869Z,8.76
2019-04-10T21:07:59.683Z,8.78
2019-04-10T21:10:33.692Z,8.68
2019-04-10T21:13:04.922Z,8.60
2019-04-10T21:15:37.599Z,8.46
2019-04-10T21:18:08.330Z,8.56
2019-04-10T21:20:39.049Z,8.59
2019-04-10T21:23:19.577Z,8.37
2019-04-10T21:25:50.427Z,8.26
2019-04-10T21:28:22.492Z,8.09
2019-04-10T21:31:09.705Z,8.16
2019-04-10T21:33:42.941Z,8.30
2019-04-10T21:36:26.187Z,8.09
2019-04-10T21:39:01.058Z,8.10
2019-04-10T21:41:34.521Z,7.70
2019-04-10T21:44:06.405Z,7.92
2019-04-10T21:47:14.260Z,8.02
2019-04-10T21:49:54.984Z,8.02
2019-04-10T21:52:36.464Z,8.16
2019-04-10T21:55:19.167Z,8.07
2019-04-10T21:57:55.767Z,8.14
2019-04-10T22:01:01.614Z,8.14
2019-04-10T22:03:57.047Z,8.04
2019-04-10T22:06:30.196Z,7.86
2019-04-10T22:09:12.514Z,7.98
2019-04-10T22:11:51.409Z,7.91
2019-04-10T22:14:28.201Z,7.91
2019-04-10T22:17:07.020Z,7.88
2019-04-10T22:19:39.570Z,7.90
2019-04-10T22:22:11.439Z,7.79
2019-04-10T22:24:43.328Z,7.84
2019-04-10T22:27:20.918Z,7.78
2019-04-10T22:29:52.955Z,7.53
2019-04-10T22:32:39.161Z,7.50
2019-04-10T22:35:12.686Z,7.57
2019-04-10T22:37:44.072Z,7.42
2019-04-10T22:40:19.154Z,7.43
2019-04-10T22:42:57.458Z,7.42
2019-04-10T22:45:31.120Z,7.21
2019-04-10T22:48:08.255Z,7.18
2019-04-10T22:50:40.954Z,7.29
2019-04-10T22:53:11.656Z,7.26
2019-04-10T22:55:44.518Z,7.23
2019-04-10T22:58:15.119Z,7.19
2019-04-10T23:01:04.906Z,7.27
2019-04-10T23:03:36.629Z,7.20
2019-04-10T23:06:09.508Z,7.18
2019-04-10T23:08:40.125Z,7.17
2019-04-10T23:11:10.841Z,7.15
2019-04-10T23:13:42.511Z,7.27
2019-04-10T23:16:19.909Z,7.10
2019-04-10T23:19:03.685Z,7.04
2019-04-10T23:21:34.472Z,7.00
2019-04-10T23:24:05.490Z,7.01
2019-04-10T23:26:37.405Z,6.99
2019-04-10T23:29:08.429Z,7.01
2019-04-10T23:31:41.633Z,6.92
2019-04-10T23:34:20.827Z,6.92
2019-04-10T23:36:59.816Z,6.95
2019-04-10T23:39:36.655Z,6.83
2019-04-10T23:42:07.594Z,6.77
2019-04-10T23:44:49.073Z,6.68
2019-04-10T23:47:20.144Z,6.60
2019-04-10T23:49:55.427Z,6.48
2019-04-10T23:52:26.110Z,6.30
2019-04-10T23:54:57.582Z,6.29
2019-04-10T23:57:29.383Z,6.31
